Time;durP1;ratioP1;P1;durP2;ratioP2;P2;SDS_P1;SDS_P2;PMS_P1;PMS_P2;Temp;Humidity;BMP_temperature;BMP_pressure;BME280_temperature;BME280_humidity;BME280_pressure;Samples;Min_cycle;Max_cycle;Signal;HPM_P1;HPM_P2
2023/03/07 00:02:24;;;;;;;8.35;3.47;;;;;;;;;;5011574;28;20042;-68
2023/03/07 00:04:50;;;;;;;8.82;2.95;;;;;;;;;;5010478;28;20033;-68
2023/03/07 00:07:16;;;;;;;6.88;3.95;;;;;;;;;;5011664;28;20483;-69
2023/03/07 00:09:42;;;;;;;8.88;3.30;;;;;;;;;;5011635;28;20025;-68
2023/03/07 00:12:09;;;;;;;8.85;2.65;;;;;;;;;;5011387;28;20033;-68
2023/03/07 00:14:35;;;;;;;5.13;2.88;;;;;;;;;;5011582;28;20537;-68
2023/03/07 00:17:01;;;;;;;8.48;3.10;;;;;;;;;;5011587;28;20030;-69
2023/03/07 00:19:27;;;;;;;8.05;3.33;;;;;;;;;;5011429;28;20068;-69
2023/03/07 00:21:53;;;;;;;12.43;3.03;;;;;;;;;;5010097;28;20077;-69
2023/03/07 00:24:19;;;;;;;13.75;3.70;;;;;;;;;;5011355;28;20561;-69
2023/03/07 00:26:46;;;;;;;8.88;3.00;;;;;;;;;;5011405;28;20029;-69
2023/03/07 00:29:12;;;;;;;8.02;2.65;;;;;;;;;;5011454;28;20026;-69
2023/03/07 00:31:38;;;;;;;5.40;2.15;;;;;;;;;;5011358;28;20053;-70
2023/03/07 00:34:04;;;;;;;10.32;2.38;;;;;;;;;;5011324;28;20030;-70
2023/03/07 00:36:30;;;;;;;3.33;1.63;;;;;;;;;;5009093;28;20106;-69
2023/03/07 00:38:56;;;;;;;10.57;2.28;;;;;;;;;;5011312;28;20022;-69
2023/03/07 00:41:23;;;;;;;6.93;1.90;;;;;;;;;;5009818;28;20064;-70
2023/03/07 00:43:50;;;;;;;7.38;2.20;;;;;;;;;;5014309;28;20121;-69
2023/03/07 00:46:17;;;;;;;7.20;2.20;;;;;;;;;;5015293;28;20026;-69
2023/03/07 00:48:43;;;;;;;7.95;2.13;;;;;;;;;;5015175;28;20087;-68
2023/03/07 00:51:11;;;;;;;3.58;1.85;;;;;;;;;;5015031;28;20029;-69
2023/03/07 00:53:38;;;;;;;7.43;1.70;;;;;;;;;;5014119;28;20026;-70
2023/03/07 00:56:06;;;;;;;5.43;2.67;;;;;;;;;;5013520;28;20111;-70
2023/03/07 00:58:33;;;;;;;6.88;2.20;;;;;;;;;;5015080;28;20030;-70
2023/03/07 01:00:59;;;;;;;7.45;2.05;;;;;;;;;;5013592;28;20172;-69
2023/03/07 01:03:25;;;;;;;4.80;1.88;;;;;;;;;;5014745;28;20489;-69
2023/03/07 01:05:52;;;;;;;7.95;2.28;;;;;;;;;;5014966;28;20018;-70
2023/03/07 01:08:18;;;;;;;3.42;1.42;;;;;;;;;;5013646;28;20029;-69
2023/03/07 01:10:47;;;;;;;3.78;1.70;;;;;;;;;;5013901;28;20056;-69
2023/03/07 01:13:13;;;;;;;6.90;1.73;;;;;;;;;;5014576;28;20118;-70
2023/03/07 01:15:40;;;;;;;3.50;2.10;;;;;;;;;;5014748;28;20029;-70
2023/03/07 01:18:06;;;;;;;3.10;1.73;;;;;;;;;;5014589;28;20036;-69
2023/03/07 01:20:33;;;;;;;18.73;2.03;;;;;;;;;;5012782;28;20073;-69
2023/03/07 01:22:59;;;;;;;9.68;2.33;;;;;;;;;;5013477;28;20056;-69
2023/03/07 01:25:26;;;;;;;6.20;1.70;;;;;;;;;;5014558;28;20026;-70
2023/03/07 01:27:54;;;;;;;8.25;2.55;;;;;;;;;;5013606;28;20033;-69
2023/03/07 01:30:20;;;;;;;6.43;2.22;;;;;;;;;;5014336;28;20025;-69
2023/03/07 01:32:47;;;;;;;5.68;2.22;;;;;;;;;;5014235;28;20033;-69
2023/03/07 01:35:14;;;;;;;10.00;2.00;;;;;;;;;;5014450;28;20072;-70
2023/03/07 01:37:40;;;;;;;3.80;1.60;;;;;;;;;;5013046;28;20611;-70
2023/03/07 01:40:06;;;;;;;9.05;2.03;;;;;;;;;;5014288;28;20028;-70
2023/03/07 01:42:32;;;;;;;5.25;2.20;;;;;;;;;;5013035;28;20042;-69
2023/03/07 01:45:03;;;;;;;8.55;1.98;;;;;;;;;;5012777;28;20026;-69
2023/03/07 01:47:29;;;;;;;12.60;1.77;;;;;;;;;;5014373;28;20139;-69
2023/03/07 01:49:56;;;;;;;8.98;1.75;;;;;;;;;;5013988;28;20026;-69
2023/03/07 01:52:42;;;;;;;8.60;2.20;;;;;;;;;;5012609;28;20140;-69
2023/03/07 01:55:08;;;;;;;5.72;2.08;;;;;;;;;;5013733;28;20482;-70
2023/03/07 01:57:36;;;;;;;7.22;2.13;;;;;;;;;;5014019;28;20033;-70
2023/03/07 02:00:07;;;;;;;5.75;2.25;;;;;;;;;;5012736;28;20054;-70
2023/03/07 02:02:33;;;;;;;12.02;2.45;;;;;;;;;;5013681;28;20510;-70
2023/03/07 02:05:03;;;;;;;7.60;1.98;;;;;;;;;;5013745;28;20026;-69
2023/03/07 02:07:33;;;;;;;7.93;2.05;;;;;;;;;;5013779;28;20033;-69
2023/03/07 02:10:00;;;;;;;9.88;2.47;;;;;;;;;;5013581;28;20133;-69
2023/03/07 02:12:26;;;;;;;8.93;2.05;;;;;;;;;;5013628;28;20083;-69
2023/03/07 02:14:52;;;;;;;10.80;2.33;;;;;;;;;;5013043;28;20054;-70
2023/03/07 02:17:19;;;;;;;5.43;1.65;;;;;;;;;;5013258;28;20029;-71
2023/03/07 02:19:45;;;;;;;4.70;1.42;;;;;;;;;;5013544;28;20026;-69
2023/03/07 02:22:12;;;;;;;6.93;2.40;;;;;;;;;;5013128;28;20045;-70
2023/03/07 02:24:38;;;;;;;4.10;2.28;;;;;;;;;;5013445;28;20106;-71
2023/03/07 02:27:05;;;;;;;4.82;1.85;;;;;;;;;;5013250;28;20100;-70
2023/03/07 02:29:31;;;;;;;8.95;2.08;;;;;;;;;;5013428;28;20049;-70
2023/03/07 02:31:57;;;;;;;8.05;2.30;;;;;;;;;;5012254;28;20120;-70
2023/03/07 02:34:24;;;;;;;8.02;2.60;;;;;;;;;;5013200;28;20026;-73
2023/03/07 02:36:53;;;;;;;5.93;2.40;;;;;;;;;;5013123;28;20518;-70
2023/03/07 02:39:20;;;;;;;9.25;1.90;;;;;;;;;;5013203;28;20109;-69
2023/03/07 02:41:46;;;;;;;8.63;2.63;;;;;;;;;;5012953;28;20030;-70
2023/03/07 02:44:13;;;;;;;8.82;1.90;;;;;;;;;;5012963;28;20056;-71
2023/03/07 02:46:39;;;;;;;10.95;2.25;;;;;;;;;;5012896;28;20083;-69
2023/03/07 02:49:05;;;;;;;9.85;2.17;;;;;;;;;;5011767;28;20105;-70
2023/03/07 02:51:31;;;;;;;4.68;1.83;;;;;;;;;;5012781;28;20042;-69
2023/03/07 02:53:57;;;;;;;4.63;1.63;;;;;;;;;;5013029;28;20018;-70
2023/03/07 02:56:23;;;;;;;6.72;2.30;;;;;;;;;;5012715;28;20038;-69
2023/03/07 02:58:49;;;;;;;6.80;2.40;;;;;;;;;;5012979;28;20022;-71
2023/03/07 03:01:15;;;;;;;8.38;2.63;;;;;;;;;;5012488;28;20033;-72
2023/03/07 03:03:41;;;;;;;3.05;1.70;;;;;;;;;;5010589;28;20113;-70
2023/03/07 03:06:07;;;;;;;9.88;2.63;;;;;;;;;;5011724;28;20041;-70
2023/03/07 03:08:33;;;;;;;7.30;2.70;;;;;;;;;;5012841;28;20044;-70
2023/03/07 03:11:00;;;;;;;11.73;3.17;;;;;;;;;;5012727;28;20133;-69
2023/03/07 03:13:26;;;;;;;8.35;1.73;;;;;;;;;;5012483;28;20037;-70
2023/03/07 03:15:55;;;;;;;12.43;3.53;;;;;;;;;;5012243;28;20036;-70
2023/03/07 03:18:22;;;;;;;3.30;1.50;;;;;;;;;;5011041;28;20109;-69
2023/03/07 03:20:48;;;;;;;8.60;2.22;;;;;;;;;;5010982;28;20037;-70
2023/03/07 03:23:14;;;;;;;9.73;3.03;;;;;;;;;;5011979;28;20034;-69
2023/03/07 03:25:40;;;;;;;14.48;2.28;;;;;;;;;;5012263;28;20032;-69
2023/03/07 03:28:07;;;;;;;16.02;4.25;;;;;;;;;;5012260;28;20038;-69
2023/03/07 03:30:34;;;;;;;7.25;2.20;;;;;;;;;;5012028;28;20026;-70
2023/03/07 03:33:01;;;;;;;7.45;1.95;;;;;;;;;;5012239;28;20030;-70
2023/03/07 03:35:27;;;;;;;6.43;1.90;;;;;;;;;;5012067;28;20022;-70
2023/03/07 03:37:53;;;;;;;5.93;2.17;;;;;;;;;;5010888;28;20534;-71
2023/03/07 03:40:19;;;;;;;11.43;3.38;;;;;;;;;;5012146;28;20022;-69
2023/03/07 03:42:46;;;;;;;10.57;2.28;;;;;;;;;;5011933;28;20042;-70
2023/03/07 03:45:13;;;;;;;3.17;1.73;;;;;;;;;;5012145;28;20071;-71
2023/03/07 03:47:40;;;;;;;10.13;2.25;;;;;;;;;;5011765;28;20026;-69
2023/03/07 03:50:06;;;;;;;7.55;2.08;;;;;;;;;;5011836;28;20014;-71
2023/03/07 03:52:32;;;;;;;6.78;2.13;;;;;;;;;;5010957;28;20497;-70
2023/03/07 03:54:58;;;;;;;12.73;2.05;;;;;;;;;;5012016;28;20034;-70
2023/03/07 03:57:24;;;;;;;11.35;2.05;;;;;;;;;;5011792;28;20101;-70
2023/03/07 03:59:50;;;;;;;8.77;1.73;;;;;;;;;;5011793;28;20041;-71
2023/03/07 04:02:16;;;;;;;4.85;2.50;;;;;;;;;;5011624;28;20036;-70
2023/03/07 04:04:42;;;;;;;10.63;2.10;;;;;;;;;;5011511;28;20026;-70
2023/03/07 04:07:08;;;;;;;4.20;1.90;;;;;;;;;;5011790;28;20037;-70
2023/03/07 04:09:34;;;;;;;3.03;1.13;;;;;;;;;;5010547;28;20212;-69
2023/03/07 04:12:00;;;;;;;10.27;2.28;;;;;;;;;;5011614;28;20029;-71
2023/03/07 04:14:26;;;;;;;8.85;1.73;;;;;;;;;;5011546;28;20030;-70
2023/03/07 04:16:52;;;;;;;3.63;1.77;;;;;;;;;;5011309;28;20026;-69
2023/03/07 04:19:18;;;;;;;7.72;1.55;;;;;;;;;;5011486;28;20025;-69
2023/03/07 04:21:45;;;;;;;6.32;2.00;;;;;;;;;;5011045;28;20061;-70
2023/03/07 04:24:11;;;;;;;6.78;2.10;;;;;;;;;;5010906;28;20117;-70
2023/03/07 04:26:37;;;;;;;9.05;2.20;;;;;;;;;;5010060;28;20045;-71
2023/03/07 04:29:03;;;;;;;6.57;2.00;;;;;;;;;;5011440;28;20018;-70
2023/03/07 04:31:29;;;;;;;9.57;2.60;;;;;;;;;;5011435;28;20054;-69
2023/03/07 04:33:56;;;;;;;7.05;1.80;;;;;;;;;;5011270;28;20022;-70
2023/03/07 04:36:23;;;;;;;6.65;2.17;;;;;;;;;;5011274;28;20030;-69
2023/03/07 04:38:49;;;;;;;7.20;1.83;;;;;;;;;;5011161;28;20026;-70
2023/03/07 04:41:20;;;;;;;5.63;1.50;;;;;;;;;;5010312;28;20542;-70
2023/03/07 04:43:46;;;;;;;16.85;2.58;;;;;;;;;;5011328;28;20038;-70
2023/03/07 04:46:13;;;;;;;5.32;1.90;;;;;;;;;;5011145;28;20049;-70
2023/03/07 04:48:39;;;;;;;6.53;3.15;;;;;;;;;;5009696;28;20037;-68
2023/03/07 04:51:06;;;;;;;10.68;1.75;;;;;;;;;;5016218;28;20378;-70
2023/03/07 04:53:32;;;;;;;5.68;2.15;;;;;;;;;;5029595;28;20036;-70
2023/03/07 04:55:58;;;;;;;5.60;1.50;;;;;;;;;;5017632;28;20057;-70
2023/03/07 04:58:25;;;;;;;7.43;1.88;;;;;;;;;;5009604;28;20419;-70
2023/03/07 05:00:51;;;;;;;5.60;2.13;;;;;;;;;;5011056;28;20061;-69
2023/03/07 05:03:17;;;;;;;8.65;2.00;;;;;;;;;;5009752;28;20036;-70
2023/03/07 05:05:43;;;;;;;9.27;2.47;;;;;;;;;;5006262;28;20464;-71
2023/03/07 05:08:09;;;;;;;9.30;2.20;;;;;;;;;;5017899;28;20467;-70
2023/03/07 05:10:36;;;;;;;5.88;2.30;;;;;;;;;;5030720;28;20026;-69
2023/03/07 05:13:02;;;;;;;7.60;1.83;;;;;;;;;;5030560;28;20104;-70
2023/03/07 05:15:29;;;;;;;9.13;1.83;;;;;;;;;;5030434;28;20105;-69
2023/03/07 05:17:55;;;;;;;11.93;2.20;;;;;;;;;;5024994;28;20026;-71
2023/03/07 05:20:22;;;;;;;9.05;2.90;;;;;;;;;;5010751;28;20152;-69
2023/03/07 05:22:48;;;;;;;6.88;2.03;;;;;;;;;;5010006;28;20030;-70
2023/03/07 05:25:15;;;;;;;8.32;2.20;;;;;;;;;;5010044;28;20054;-69
2023/03/07 05:27:41;;;;;;;8.32;2.97;;;;;;;;;;5010857;28;20118;-69
2023/03/07 05:30:07;;;;;;;5.93;3.40;;;;;;;;;;5013637;28;20026;-69
2023/03/07 05:32:34;;;;;;;10.40;3.00;;;;;;;;;;5014492;28;20018;-69
2023/03/07 05:35:00;;;;;;;7.68;3.08;;;;;;;;;;5014210;28;20026;-69
2023/03/07 05:37:26;;;;;;;9.95;2.53;;;;;;;;;;5013035;28;20060;-68
2023/03/07 05:39:52;;;;;;;7.70;2.42;;;;;;;;;;5013583;28;20109;-70
2023/03/07 05:42:18;;;;;;;11.10;3.08;;;;;;;;;;5013091;28;20064;-68
2023/03/07 05:44:44;;;;;;;5.93;2.30;;;;;;;;;;5013023;28;20034;-68
2023/03/07 05:47:10;;;;;;;5.38;2.25;;;;;;;;;;5045642;28;20060;-68
2023/03/07 05:49:36;;;;;;;8.30;2.78;;;;;;;;;;5014317;28;20014;-67
2023/03/07 05:52:03;;;;;;;5.68;2.08;;;;;;;;;;5013872;28;20033;-67
2023/03/07 05:54:29;;;;;;;9.95;2.60;;;;;;;;;;5012754;28;20026;-68
2023/03/07 05:56:55;;;;;;;6.53;2.30;;;;;;;;;;5012740;28;20029;-68
2023/03/07 05:59:21;;;;;;;10.23;3.45;;;;;;;;;;5013165;28;20442;-68
2023/03/07 06:01:47;;;;;;;9.30;2.42;;;;;;;;;;5013729;28;20034;-68
2023/03/07 06:04:13;;;;;;;4.07;2.50;;;;;;;;;;5013838;28;20161;-67
2023/03/07 06:06:39;;;;;;;5.75;2.35;;;;;;;;;;5013663;28;20033;-67
2023/03/07 06:09:05;;;;;;;9.00;2.85;;;;;;;;;;5013778;28;20026;-67
2023/03/07 06:11:32;;;;;;;7.10;2.17;;;;;;;;;;5013658;28;20022;-67
2023/03/07 06:13:58;;;;;;;8.05;2.80;;;;;;;;;;5011729;28;20045;-69
2023/03/07 06:16:24;;;;;;;10.10;2.42;;;;;;;;;;5012310;28;20026;-68
2023/03/07 06:18:50;;;;;;;10.13;3.08;;;;;;;;;;5013058;28;20025;-69
2023/03/07 06:21:17;;;;;;;16.25;2.50;;;;;;;;;;5013112;28;20077;-69
2023/03/07 06:23:43;;;;;;;7.35;2.72;;;;;;;;;;5013349;28;20026;-69
2023/03/07 06:26:11;;;;;;;10.88;2.83;;;;;;;;;;5013378;28;20642;-69
2023/03/07 06:28:37;;;;;;;7.10;2.38;;;;;;;;;;5011308;28;20041;-66
2023/03/07 06:31:10;;;;;;;13.23;2.83;;;;;;;;;;5012323;28;20033;-68
2023/03/07 06:33:37;;;;;;;4.53;2.00;;;;;;;;;;5011227;28;20057;-68
2023/03/07 06:36:07;;;;;;;7.63;2.13;;;;;;;;;;5012096;28;20176;-68
2023/03/07 06:38:33;;;;;;;7.55;2.35;;;;;;;;;;5012509;28;20030;-69
2023/03/07 06:40:59;;;;;;;8.15;3.72;;;;;;;;;;5013042;28;20493;-68
2023/03/07 06:43:25;;;;;;;7.22;2.97;;;;;;;;;;5012119;28;20149;-68
2023/03/07 06:45:51;;;;;;;6.10;3.13;;;;;;;;;;5008910;28;20030;-68
2023/03/07 06:48:17;;;;;;;4.47;3.03;;;;;;;;;;5011944;28;20033;-68
2023/03/07 06:50:44;;;;;;;10.18;3.85;;;;;;;;;;5012968;28;20030;-67
2023/03/07 06:53:10;;;;;;;10.98;3.38;;;;;;;;;;5012012;28;20026;-67
2023/03/07 06:55:36;;;;;;;10.68;3.42;;;;;;;;;;5012643;28;20052;-67
2023/03/07 06:58:03;;;;;;;11.75;3.65;;;;;;;;;;5012637;28;20033;-68
2023/03/07 07:00:29;;;;;;;7.32;3.75;;;;;;;;;;5012759;28;20053;-68
2023/03/07 07:02:55;;;;;;;7.78;4.05;;;;;;;;;;5012482;28;20121;-67
2023/03/07 07:05:21;;;;;;;7.10;3.67;;;;;;;;;;5011632;28;20080;-68
2023/03/07 07:07:47;;;;;;;6.55;3.60;;;;;;;;;;5011959;28;20033;-67
2023/03/07 07:10:13;;;;;;;9.50;4.40;;;;;;;;;;5010893;28;20101;-69
2023/03/07 07:12:40;;;;;;;8.68;4.00;;;;;;;;;;5012452;28;20418;-69
2023/03/07 07:15:06;;;;;;;7.63;4.20;;;;;;;;;;5012438;28;20088;-69
2023/03/07 07:17:37;;;;;;;6.85;3.63;;;;;;;;;;5011734;28;20030;-69
2023/03/07 07:20:04;;;;;;;6.43;3.50;;;;;;;;;;5011745;28;20053;-67
2023/03/07 07:22:30;;;;;;;5.25;3.45;;;;;;;;;;5010388;28;20333;-68
2023/03/07 07:24:56;;;;;;;4.25;3.00;;;;;;;;;;5011003;28;20479;-69
2023/03/07 07:27:22;;;;;;;6.22;3.08;;;;;;;;;;5012242;28;20030;-69
2023/03/07 07:29:49;;;;;;;5.10;3.22;;;;;;;;;;5012008;28;20344;-67
2023/03/07 07:32:15;;;;;;;6.38;4.82;;;;;;;;;;5009864;28;20076;-68
2023/03/07 07:34:41;;;;;;;7.85;3.35;;;;;;;;;;5010745;28;20026;-69
2023/03/07 07:37:07;;;;;;;4.50;3.13;;;;;;;;;;5011138;28;20511;-69
2023/03/07 07:39:33;;;;;;;7.22;4.32;;;;;;;;;;5010342;28;20061;-68
2023/03/07 07:41:59;;;;;;;6.90;4.00;;;;;;;;;;5011823;28;20037;-68
2023/03/07 07:44:28;;;;;;;6.65;4.00;;;;;;;;;;5012058;28;20160;-68
2023/03/07 07:46:54;;;;;;;7.72;4.60;;;;;;;;;;5011750;28;20489;-69
2023/03/07 07:49:20;;;;;;;6.97;4.18;;;;;;;;;;5011951;28;20029;-68
2023/03/07 07:51:46;;;;;;;8.57;4.63;;;;;;;;;;5009631;28;20506;-68
2023/03/07 07:54:12;;;;;;;9.48;4.78;;;;;;;;;;5011864;28;20503;-67
2023/03/07 07:56:38;;;;;;;10.23;5.00;;;;;;;;;;4995607;28;20060;-68
2023/03/07 07:59:04;;;;;;;7.68;4.18;;;;;;;;;;5011753;28;20360;-69
2023/03/07 08:01:30;;;;;;;8.32;5.00;;;;;;;;;;5011674;28;20049;-67
2023/03/07 08:03:56;;;;;;;8.40;4.35;;;;;;;;;;5011648;28;20084;-67
2023/03/07 08:06:24;;;;;;;7.65;4.55;;;;;;;;;;5010820;28;20022;-68
2023/03/07 08:08:50;;;;;;;11.07;7.80;;;;;;;;;;5011334;28;20025;-68
2023/03/07 08:11:17;;;;;;;8.75;4.38;;;;;;;;;;5011089;28;20061;-68
2023/03/07 08:13:43;;;;;;;8.60;4.97;;;;;;;;;;5010472;28;20034;-67
2023/03/07 08:16:16;;;;;;;6.82;4.35;;;;;;;;;;5010830;28;20087;-68
2023/03/07 08:18:43;;;;;;;6.32;3.65;;;;;;;;;;5009126;28;20485;-68
2023/03/07 08:21:09;;;;;;;8.02;4.30;;;;;;;;;;5010941;28;20054;-68
2023/03/07 08:23:36;;;;;;;8.30;3.80;;;;;;;;;;5010757;28;20033;-67
2023/03/07 08:26:03;;;;;;;7.15;4.00;;;;;;;;;;5010451;28;20049;-68
2023/03/07 08:28:29;;;;;;;7.60;4.55;;;;;;;;;;5009487;28;20034;-68
2023/03/07 08:30:55;;;;;;;8.55;3.95;;;;;;;;;;5011486;28;20029;-68
2023/03/07 08:33:21;;;;;;;6.57;3.92;;;;;;;;;;5010046;28;20022;-68
2023/03/07 08:35:47;;;;;;;6.22;3.85;;;;;;;;;;5022367;28;20058;-68
2023/03/07 08:38:13;;;;;;;5.60;3.60;;;;;;;;;;4991613;28;20030;-68
2023/03/07 08:40:39;;;;;;;9.90;4.18;;;;;;;;;;4991522;28;20029;-68
2023/03/07 08:43:06;;;;;;;7.30;3.58;;;;;;;;;;4991718;28;20130;-67
2023/03/07 08:45:32;;;;;;;7.13;4.05;;;;;;;;;;4991828;28;20181;-68
2023/03/07 08:47:58;;;;;;;5.97;3.40;;;;;;;;;;4991767;28;20033;-67
2023/03/07 08:50:26;;;;;;;7.35;4.05;;;;;;;;;;4996341;28;20475;-67
2023/03/07 08:52:52;;;;;;;7.90;3.38;;;;;;;;;;5011060;28;20030;-67
2023/03/07 08:55:19;;;;;;;10.00;4.22;;;;;;;;;;5011197;28;20057;-67
2023/03/07 08:57:46;;;;;;;6.18;3.75;;;;;;;;;;5011207;28;20093;-67
2023/03/07 09:00:12;;;;;;;8.35;4.00;;;;;;;;;;5011083;28;20034;-67
2023/03/07 09:02:38;;;;;;;8.13;4.35;;;;;;;;;;5011133;28;20047;-67
2023/03/07 09:05:05;;;;;;;9.38;4.53;;;;;;;;;;5014481;28;20097;-67
2023/03/07 09:07:31;;;;;;;8.10;4.30;;;;;;;;;;5015037;28;20084;-67
2023/03/07 09:09:57;;;;;;;8.50;4.38;;;;;;;;;;5013849;28;20371;-67
2023/03/07 09:12:23;;;;;;;7.15;3.97;;;;;;;;;;5015001;28;20026;-68
2023/03/07 09:14:49;;;;;;;7.93;4.00;;;;;;;;;;5014826;28;20533;-67
2023/03/07 09:17:17;;;;;;;7.90;4.07;;;;;;;;;;5014465;28;20052;-67
2023/03/07 09:19:43;;;;;;;10.45;4.22;;;;;;;;;;5014539;28;20026;-67
2023/03/07 09:22:09;;;;;;;11.38;4.03;;;;;;;;;;5014477;28;20153;-68
2023/03/07 09:24:36;;;;;;;10.32;4.32;;;;;;;;;;5014662;28;20057;-68
2023/03/07 09:27:02;;;;;;;7.47;4.15;;;;;;;;;;5013315;28;20391;-68
2023/03/07 09:29:28;;;;;;;8.98;4.55;;;;;;;;;;5014549;28;20022;-67
2023/03/07 09:31:54;;;;;;;9.38;3.88;;;;;;;;;;5014560;28;20112;-68
2023/03/07 09:34:20;;;;;;;7.30;4.18;;;;;;;;;;5014431;28;20483;-68
2023/03/07 09:36:46;;;;;;;7.72;3.78;;;;;;;;;;5014584;28;20390;-67
2023/03/07 09:39:13;;;;;;;6.35;3.45;;;;;;;;;;5012960;28;20123;-68
2023/03/07 09:41:51;;;;;;;7.00;4.10;;;;;;;;;;5014363;28;20463;-68
2023/03/07 09:44:41;;;;;;;10.38;4.28;;;;;;;;;;5013043;28;20018;-67
2023/03/07 09:47:16;;;;;;;8.20;3.97;;;;;;;;;;5011146;28;20033;-68
2023/03/07 09:49:49;;;;;;;8.55;3.58;;;;;;;;;;5013752;28;20026;-67
2023/03/07 09:52:24;;;;;;;7.70;3.78;;;;;;;;;;5012448;28;20026;-68
2023/03/07 09:54:56;;;;;;;8.88;3.70;;;;;;;;;;5014013;28;20025;-69
2023/03/07 09:57:25;;;;;;;7.72;3.92;;;;;;;;;;5013944;28;20034;-68
2023/03/07 09:59:55;;;;;;;6.47;4.00;;;;;;;;;;5013761;28;20113;-68
2023/03/07 10:02:29;;;;;;;7.03;3.35;;;;;;;;;;5012770;28;20034;-68
2023/03/07 10:04:55;;;;;;;12.60;3.53;;;;;;;;;;5012654;28;20057;-68
2023/03/07 10:07:23;;;;;;;5.70;3.42;;;;;;;;;;5013812;28;20061;-67
2023/03/07 10:09:53;;;;;;;6.82;3.45;;;;;;;;;;5013631;28;20018;-66
2023/03/07 10:12:42;;;;;;;6.22;2.88;;;;;;;;;;5013663;28;20029;-68
2023/03/07 10:15:08;;;;;;;4.88;2.63;;;;;;;;;;5003065;28;20593;-66
2023/03/07 10:17:52;;;;;;;7.85;3.38;;;;;;;;;;5012695;28;20052;-67
2023/03/07 10:20:33;;;;;;;4.65;3.03;;;;;;;;;;5013305;28;20104;-67
2023/03/07 10:23:19;;;;;;;4.57;3.00;;;;;;;;;;5012101;28;20049;-69
2023/03/07 10:25:45;;;;;;;8.65;3.50;;;;;;;;;;5013097;28;20022;-66
2023/03/07 10:28:14;;;;;;;5.28;3.10;;;;;;;;;;5013598;28;20112;-67
2023/03/07 10:30:40;;;;;;;7.47;3.45;;;;;;;;;;5013513;28;20033;-68
2023/03/07 10:33:07;;;;;;;5.93;3.40;;;;;;;;;;5012530;28;20036;-69
2023/03/07 10:35:41;;;;;;;8.80;4.68;;;;;;;;;;5013236;28;20041;-67
2023/03/07 10:38:42;;;;;;;6.57;4.32;;;;;;;;;;5011947;28;20164;-67
2023/03/07 10:41:08;;;;;;;6.60;4.10;;;;;;;;;;4989849;28;20104;-67
2023/03/07 10:43:34;;;;;;;9.48;4.60;;;;;;;;;;5008813;28;20034;-67
2023/03/07 10:46:09;;;;;;;7.47;4.13;;;;;;;;;;5013117;28;20029;-67
2023/03/07 10:48:37;;;;;;;7.30;3.78;;;;;;;;;;5012992;28;20030;-68
2023/03/07 10:51:15;;;;;;;7.57;4.30;;;;;;;;;;5012902;28;20026;-68
2023/03/07 10:53:41;;;;;;;6.03;4.10;;;;;;;;;;5013042;28;20036;-68
2023/03/07 10:56:12;;;;;;;9.15;4.88;;;;;;;;;;5011648;28;20418;-68
2023/03/07 10:58:40;;;;;;;8.00;4.60;;;;;;;;;;5012811;28;20463;-67
2023/03/07 11:01:06;;;;;;;8.73;4.45;;;;;;;;;;5012567;28;20037;-69
2023/03/07 11:03:40;;;;;;;10.10;5.18;;;;;;;;;;5012688;28;20356;-69
2023/03/07 11:06:06;;;;;;;9.98;4.78;;;;;;;;;;5012829;28;20037;-69
2023/03/07 11:08:34;;;;;;;11.38;5.40;;;;;;;;;;5012729;28;20026;-68
2023/03/07 11:11:01;;;;;;;10.20;5.60;;;;;;;;;;5011404;28;20045;-68
2023/03/07 11:13:28;;;;;;;9.82;5.63;;;;;;;;;;5012634;28;20026;-68
2023/03/07 11:16:14;;;;;;;11.27;5.22;;;;;;;;;;5012624;28;20028;-69
2023/03/07 11:18:41;;;;;;;10.05;5.30;;;;;;;;;;5008577;28;20490;-69
2023/03/07 11:21:25;;;;;;;7.90;4.15;;;;;;;;;;5012162;28;20057;-69
2023/03/07 11:23:58;;;;;;;6.57;3.83;;;;;;;;;;5012289;28;20081;-68
2023/03/07 11:26:24;;;;;;;6.07;3.83;;;;;;;;;;5011650;28;20049;-67
2023/03/07 11:29:08;;;;;;;10.25;4.20;;;;;;;;;;5011649;28;20037;-68
2023/03/07 11:31:39;;;;;;;2.95;2.50;;;;;;;;;;5012375;28;20026;-68
2023/03/07 11:34:15;;;;;;;4.90;2.45;;;;;;;;;;5012118;28;20026;-68
2023/03/07 11:36:43;;;;;;;5.30;3.25;;;;;;;;;;5011956;28;20113;-68
2023/03/07 11:39:16;;;;;;;6.43;3.88;;;;;;;;;;5010830;28;20060;-69
2023/03/07 11:41:45;;;;;;;6.13;3.85;;;;;;;;;;5012106;28;20046;-68
2023/03/07 11:44:30;;;;;;;8.70;4.63;;;;;;;;;;5012165;28;20085;-68
2023/03/07 11:47:05;;;;;;;6.53;3.85;;;;;;;;;;5011848;28;20030;-68
2023/03/07 11:49:38;;;;;;;7.07;3.38;;;;;;;;;;5012184;28;20022;-68
2023/03/07 11:52:03;;;;;;;;;;;;;;;;;;5012493;28;20022;-68
2023/03/07 11:54:36;;;;;;;5.35;3.08;;;;;;;;;;5011798;28;19906;-67
2023/03/07 11:57:22;;;;;;;6.35;3.50;;;;;;;;;;5011887;28;20033;-69
2023/03/07 11:59:55;;;;;;;5.80;3.10;;;;;;;;;;5007542;28;20057;-69
2023/03/07 12:02:41;;;;;;;5.32;3.03;;;;;;;;;;5010843;28;20038;-69
2023/03/07 12:05:13;;;;;;;4.68;2.92;;;;;;;;;;5011649;28;20474;-68
2023/03/07 12:07:39;;;;;;;;;;;;;;;;;;5012130;28;20030;-68
2023/03/07 12:10:24;;;;;;;6.05;2.63;;;;;;;;;;5011431;28;19925;-67
2023/03/07 12:12:59;;;;;;;5.90;2.65;;;;;;;;;;5011754;28;20475;-67
2023/03/07 12:16:04;;;;;;;10.38;3.13;;;;;;;;;;5011691;28;20024;-69
2023/03/07 12:18:45;;;;;;;6.38;2.90;;;;;;;;;;4988655;28;20467;-68
2023/03/07 12:21:13;;;;;;;5.45;3.17;;;;;;;;;;4989055;28;20050;-68
2023/03/07 12:23:43;;;;;;;5.43;3.55;;;;;;;;;;4997416;28;20068;-68
2023/03/07 12:26:20;;;;;;;8.18;3.72;;;;;;;;;;5011481;28;20061;-67
2023/03/07 12:28:51;;;;;;;6.65;3.50;;;;;;;;;;5011477;28;20018;-68
2023/03/07 12:31:22;;;;;;;7.60;3.92;;;;;;;;;;5011497;28;20029;-68
2023/03/07 12:33:52;;;;;;;10.55;3.95;;;;;;;;;;5011356;28;20463;-68
2023/03/07 12:36:38;;;;;;;6.88;4.18;;;;;;;;;;5011379;28;20088;-68
2023/03/07 12:39:22;;;;;;;6.43;3.88;;;;;;;;;;5013839;28;20111;-68
2023/03/07 12:41:51;;;;;;;4.90;3.42;;;;;;;;;;5015308;28;20061;-68
2023/03/07 12:44:29;;;;;;;6.22;3.40;;;;;;;;;;5015419;28;20113;-68
2023/03/07 12:47:11;;;;;;;5.35;3.40;;;;;;;;;;5015377;28;20388;-68
2023/03/07 12:49:48;;;;;;;7.60;3.40;;;;;;;;;;5015318;28;20037;-67
2023/03/07 12:52:19;;;;;;;3.80;3.35;;;;;;;;;;5015225;28;20375;-68
2023/03/07 12:54:52;;;;;;;6.13;3.58;;;;;;;;;;5014357;28;20022;-69
2023/03/07 12:57:28;;;;;;;4.18;3.30;;;;;;;;;;5015081;28;20034;-68
2023/03/07 12:59:56;;;;;;;6.70;3.60;;;;;;;;;;5015009;28;20022;-67
2023/03/07 13:02:30;;;;;;;5.28;3.25;;;;;;;;;;5012697;28;20117;-67
2023/03/07 13:04:58;;;;;;;4.80;3.10;;;;;;;;;;5013711;28;20093;-67
2023/03/07 13:07:26;;;;;;;7.63;3.92;;;;;;;;;;5011208;28;20044;-68
2023/03/07 13:09:57;;;;;;;6.20;3.75;;;;;;;;;;5015008;28;20034;-68
2023/03/07 13:12:29;;;;;;;5.43;3.60;;;;;;;;;;5013721;28;20032;-69
2023/03/07 13:14:58;;;;;;;5.93;3.85;;;;;;;;;;5015045;28;20084;-68
2023/03/07 13:17:30;;;;;;;4.50;3.47;;;;;;;;;;5014758;28;20061;-68
2023/03/07 13:19:57;;;;;;;7.35;3.60;;;;;;;;;;5014863;28;20045;-68
2023/03/07 13:22:43;;;;;;;4.20;3.70;;;;;;;;;;5014266;28;20058;-68
2023/03/07 13:25:29;;;;;;;7.43;4.22;;;;;;;;;;5014521;28;20382;-68
2023/03/07 13:27:59;;;;;;;8.25;3.92;;;;;;;;;;5013476;28;20021;-68
2023/03/07 13:30:29;;;;;;;6.43;4.05;;;;;;;;;;5014641;28;20026;-67
2023/03/07 13:33:00;;;;;;;6.22;4.30;;;;;;;;;;5014454;28;20029;-67
2023/03/07 13:35:28;;;;;;;7.85;4.50;;;;;;;;;;5014393;28;20037;-67
2023/03/07 13:38:12;;;;;;;6.75;4.80;;;;;;;;;;5014463;28;20022;-68
2023/03/07 13:40:45;;;;;;;8.15;5.20;;;;;;;;;;5014212;28;20597;-68
2023/03/07 13:43:23;;;;;;;8.98;5.10;;;;;;;;;;5012899;28;20036;-68
2023/03/07 13:45:55;;;;;;;6.38;4.68;;;;;;;;;;5013036;28;20023;-68
2023/03/07 13:48:27;;;;;;;8.20;5.20;;;;;;;;;;5013102;28;20030;-67
2023/03/07 13:50:53;;;;;;;6.90;4.93;;;;;;;;;;5013377;28;20049;-68
2023/03/07 13:53:22;;;;;;;9.80;6.40;;;;;;;;;;5014185;28;20026;-67
2023/03/07 13:56:10;;;;;;;9.13;5.75;;;;;;;;;;5014029;28;20092;-68
2023/03/07 13:58:55;;;;;;;10.18;5.82;;;;;;;;;;5014160;28;20030;-68
2023/03/07 14:01:21;;;;;;;8.25;5.80;;;;;;;;;;5013895;28;20060;-69
2023/03/07 14:03:57;;;;;;;8.40;5.72;;;;;;;;;;5011998;28;20021;-69
2023/03/07 14:06:32;;;;;;;10.57;6.13;;;;;;;;;;5013998;28;20391;-70
2023/03/07 14:08:59;;;;;;;7.72;6.03;;;;;;;;;;5013880;28;20033;-70
2023/03/07 14:11:34;;;;;;;9.52;6.72;;;;;;;;;;5013653;28;20018;-70
2023/03/07 14:14:01;;;;;;;8.15;6.53;;;;;;;;;;5013900;28;20109;-70
2023/03/07 14:16:30;;;;;;;10.65;6.70;;;;;;;;;;5013793;28;20040;-68
2023/03/07 14:18:59;;;;;;;9.88;6.35;;;;;;;;;;5012684;28;20105;-69
2023/03/07 14:21:34;;;;;;;8.18;5.93;;;;;;;;;;5013281;28;20125;-69
2023/03/07 14:24:06;;;;;;;5.70;5.10;;;;;;;;;;5013491;28;20032;-69
2023/03/07 14:26:43;;;;;;;7.07;5.05;;;;;;;;;;5013642;28;20053;-69
2023/03/07 14:29:16;;;;;;;6.05;4.50;;;;;;;;;;5011445;28;20041;-69
2023/03/07 14:31:43;;;;;;;5.57;4.53;;;;;;;;;;5011993;28;20037;-69
2023/03/07 14:34:25;;;;;;;6.00;5.40;;;;;;;;;;5013399;28;20025;-70
2023/03/07 14:36:53;;;;;;;8.55;4.50;;;;;;;;;;5013373;28;20041;-70
2023/03/07 14:39:19;;;;;;;11.00;5.45;;;;;;;;;;5013337;28;20028;-70
2023/03/07 14:41:48;;;;;;;8.60;4.88;;;;;;;;;;5012791;28;20069;-69
2023/03/07 14:44:47;;;;;;;4.13;3.63;;;;;;;;;;5011969;28;20033;-69
2023/03/07 14:47:29;;;;;;;7.78;4.10;;;;;;;;;;5001052;28;20041;-69
2023/03/07 14:49:55;;;;;;;;;;;;;;;;;;5013486;28;20022;-69
2023/03/07 14:52:23;;;;;;;7.15;3.80;;;;;;;;;;5012022;28;20515;-69